Report METAR

 

LIBV - Gioia Del Colle, Italy
Distanza dalla stazione: SSE 15km
Dati ricevuti: 20/07/2019 15:55
Sereno
Sereno
 Vento da N
Vento: N 11 km/h
Temperatura: 29°C
Indice di Calore: 29°C
P.to Rugiada: 15°C
Umidità: 43%
Barometro: 1018 hPa
Riassunto: Sereno
Visibilità: superiore a 10 km
2019/07/20 13:55 LIBV 201355Z 01006KT CAVOK 29/15 Q1018 RMK SCT SCT070 VIS MIN 9999 WIND THR32 04008KT WIND THR14 06006KT BLU
LIBD - Bari/Palese Macc, Italy
Distanza dalla stazione: NNO 26km
Dati ricevuti: 20/07/2019 16:20
Sereno
Sereno
 Vento da E
Vento: E 13 km/h
Temperatura: 28°C
Indice di Calore: 29°C
P.to Rugiada: 19°C
Umidità: 58%
Barometro: 1018 hPa
Riassunto: Sereno
Visibilità: superiore a 10 km
2019/07/20 14:20 LIBD 201420Z 08007KT 050V110 CAVOK 28/19 Q1018
 
LIBH - Marina Di Ginosa, Italy
Distanza dalla stazione: S 53km
Dati ricevuti: 20/07/2019 15:55
Sereno
Sereno
 Vento da S
Vento: S 17 km/h
Temperatura: 32°C
Indice di Calore: 34°C
P.to Rugiada: 19°C
Umidità: 46%
Barometro: 1017 hPa
Riassunto: Sereno
Visibilità: superiore a 10 km
2019/07/20 13:55 LIBH 201355Z 19009KT CAVOK 32/19 Q1017 RMK SKC QUK 2 QUL 1 S VIS MAR 25 KM VIS MIN 9999
LIBG - Grottaglie(Civ/A, Italy
Distanza dalla stazione: SE 61km
Dati ricevuti: 20/07/2019 15:50
Poche nubi
Poche nubi
 Vento da SO
Vento: SO 13 km/h
Temperatura: 32°C
P.to Rugiada: 14°C
Umidità: 33%
Barometro: 1017 hPa
Nuvole: Poche nubi
Visibilità: 10 km
Dettagli nuvole: Poche nubi 1219 m
2019/07/20 13:50 LIBG 201350Z 22007KT 180V260 9999 FEW040 32/14 Q1017
 
LIBR - Brindisi/Casale, Italy
Distanza dalla stazione: ESE 96km
Dati ricevuti: 20/07/2019 16:20
Sereno
Sereno
 Vento da NNE
Vento: NNE 15 km/h
Temperatura: 27°C
Indice di Calore: 29°C
P.to Rugiada: 20°C
Umidità: 66%
Barometro: 1018 hPa
Riassunto: Sereno
Visibilità: superiore a 10 km
2019/07/20 14:20 LIBR 201420Z 02008KT CAVOK 27/20 Q1018
LIBA - Amendola (it-Afb, Italy
Distanza dalla stazione: NO 118km
Dati ricevuti: 20/07/2019 15:55
Poche nubi
Poche nubi
 Vento da E
Vento: E 17 km/h
Temperatura: 30°C
P.to Rugiada: 12°C
Umidità: 33%
Barometro: 1017 hPa
Nuvole: Poche nubi
Visibilità: 10 km
Dettagli nuvole: Poche nubi 1219 m
2019/07/20 13:55 LIBA 201355Z 09009KT 9999 FEW040 30/12 Q1017 RMK FEW VIS MIN 9999 WIND THR11 08011KT WIND THR29 /////KT BLU
 
LIBF - Foggia/Gino Lisa, Italy
Distanza dalla stazione: ONO 126km
Dati ricevuti: 20/07/2019 15:50
Sereno
Sereno
 Vento da ENE
Vento: ENE 20 km/h
Temperatura: 33°C
P.to Rugiada: 12°C
Umidità: 28%
Barometro: 1017 hPa
Riassunto: Sereno
Visibilità: superiore a 10 km
2019/07/20 13:50 LIBF 201350Z 07011KT 050V120 CAVOK 33/12 Q1017
LIBN - Lecce (it-Afb), Italy
Distanza dalla stazione: SE 132km
Dati ricevuti: 20/07/2019 15:55
Poche nubi
Poche nubi
 Vento da N
Vento: N 9 km/h
Temperatura: 29°C
Indice di Calore: 29°C
P.to Rugiada: 16°C
Umidità: 45%
Barometro: 1018 hPa
Nuvole: Poche nubi
Visibilità: 10 km
Dettagli nuvole: Poche nubi 1067 m
2019/07/20 13:55 LIBN 201355Z 01005KT 9999 FEW035 29/16 Q1018 RMK FEW VIS MIN 9999 WIND THR14 36008KT WIND THR32 35006KT BLU